Data for 07/11/2016

Time Sea-Level Adjusted Pressure Absolute Pressure Temperature Relative Humidity Dew Point   
(mb) (inHg) (mb) (inHg) (C) (F) (%) (C) (F)
00:05 1013 29.91 842 24.86 7.9 46.2 85 5.5 41.8
00:10 1013 29.91 842 24.86 7.3 45.2 88 5.5 41.9
00:15 1013 29.91 842 24.86 7.1 44.7 90 5.5 41.9
00:20 1013 29.91 842 24.86 7 44.6 90 5.4 41.8
00:25 1013 29.91 842 24.86 7 44.6 90 5.4 41.8
00:30 1013 29.91 842 24.86 7.1 44.7 90 5.6 42
00:35 1013 29.91 842 24.86 7.2 44.9 90 5.7 42.2
00:40 1013 29.91 842 24.86 7.2 44.9 90 5.6 42.2
00:45 1013 29.91 842 24.86 7.3 45.2 90 5.8 42.4
00:50 1013 29.91 842 24.86 7.3 45.2 90 5.8 42.4
00:55 1013 29.91 842 24.86 7.4 45.3 90 5.8 42.5
01:00 1013 29.91 842 24.86 7.5 45.5 89 5.8 42.5
01:05 1013 29.91 842 24.86 7.6 45.7 88 5.8 42.4
01:10 1013 29.91 842 24.86 7.7 45.9 88 5.9 42.6
01:15 1013 29.91 842 24.86 7.8 46 88 5.9 42.6
01:20 1013 29.91 842 24.86 7.8 46.1 88 6 42.8
01:25 1013 29.91 842 24.86 7.8 46 86 5.7 42.2
01:30 1013 29.91 842 24.86 7.8 46.1 85 5.5 41.8
01:35 1013 29.91 842 24.86 7.9 46.2 85 5.6 42.1
01:40 1013 29.91 842 24.86 8 46.3 86 5.8 42.5
01:45 1013 29.91 842 24.86 8 46.3 86 5.8 42.5
01:50 1013 29.91 842 24.86 8 46.4 86 5.9 42.6
01:55 1013 29.91 842 24.86 8.1 46.6 88 6.2 43.2
02:00 1013 29.91 843 24.89 8.1 46.5 86 5.9 42.6
02:05 1014 29.94 843 24.89 8 46.3 86 5.7 42.3
02:10 1014 29.94 843 24.89 7.9 46.2 85 5.6 42.1
02:15 1014 29.94 843 24.89 7.9 46.1 86 5.7 42.2
02:20 1014 29.94 843 24.89 7.8 46 87 5.8 42.4
02:25 1014 29.94 843 24.89 7.8 46 88 5.9 42.6
02:30 1014 29.94 843 24.89 7.7 45.9 87 5.7 42.2
02:35 1014 29.94 843 24.89 7.7 45.8 87 5.7 42.3
02:40 1014 29.94 843 24.89 7.7 45.8 88 5.8 42.4
02:45 1014 29.94 843 24.89 7.6 45.6 88 5.8 42.4
02:50 1014 29.94 843 24.89 7.5 45.5 89 5.8 42.5
02:55 1014 29.94 843 24.89 7.4 45.4 90 5.9 42.5
03:00 1014 29.94 843 24.89 7.4 45.3 90 5.9 42.6
03:05 1014 29.94 843 24.89 7.4 45.3 90 5.8 42.5
03:10 1014 29.94 843 24.89 7.4 45.3 90 5.8 42.5
03:15 1014 29.94 843 24.89 7.4 45.2 90 5.8 42.4
03:20 1014 29.94 843 24.89 7.3 45.2 90 5.8 42.4
03:25 1014 29.94 843 24.89 7.3 45.2 90 5.8 42.4
03:30 1014 29.94 843 24.89 7.4 45.3 90 5.8 42.4
03:35 1014 29.94 843 24.89 7.4 45.2 90 5.8 42.5
03:40 1014 29.94 844 24.92 7.3 45.2 90 5.8 42.4
03:45 1014 29.94 844 24.92 7.3 45.2 89 5.7 42.2
03:50 1014 29.94 844 24.92 7.3 45.2 88 5.5 41.9
03:55 1014 29.94 844 24.92 7.3 45.1 88 5.5 41.8
04:00 1014 29.94 844 24.92 7.2 45 88 5.5 41.8
04:05 1015 29.97 844 24.92 7.2 44.9 88 5.3 41.6
04:10 1015 29.97 844 24.92 7.2 44.9 88 5.3 41.5
04:15 1015 29.97 844 24.92 7.1 44.9 88 5.2 41.4
04:20 1015 29.97 844 24.92 7.1 44.8 88 5.3 41.5
04:25 1015 29.97 844 24.92 7.1 44.8 88 5.3 41.5
04:30 1015 29.97 844 24.92 7.1 44.8 88 5.3 41.6
04:35 1015 29.97 844 24.92 7.1 44.8 87 5.1 41.3
04:40 1015 29.97 844 24.92 7.1 44.8 87 5.1 41.1
04:45 1015 29.97 844 24.92 7.1 44.7 87 5 41
04:50 1015 29.97 844 24.92 7.1 44.8 86 4.9 40.9
04:55 1015 29.97 844 24.92 7.1 44.8 86 4.9 40.8
05:00 1015 29.97 844 24.92 7.1 44.8 85 4.8 40.7
05:05 1015 29.97 844 24.92 7.1 44.8 86 4.9 40.8
05:10 1015 29.97 844 24.92 7.2 44.9 87 5.1 41.1
05:15 1015 29.97 844 24.92 7.2 44.9 86 5 40.9
05:20 1015 29.97 844 24.92 7.2 45 87 5.2 41.3
05:25 1015 29.97 844 24.92 7.3 45.1 87 5.3 41.5
05:30 1015 29.97 845 24.95 7.3 45.1 88 5.5 41.8
05:35 1015 29.97 845 24.95 7.2 44.9 89 5.5 41.8
05:40 1015 29.97 845 24.95 7.1 44.8 89 5.4 41.7
05:45 1015 29.97 845 24.95 7.1 44.8 88 5.3 41.6
05:50 1015 29.97 845 24.95 7.1 44.8 86 4.9 40.9
05:55 1015 29.97 845 24.95 7.2 44.9 85 4.8 40.6
06:00 1015 29.97 845 24.95 7.1 44.9 86 5 40.9
06:05 1015 29.97 845 24.95 7.1 44.8 84 4.7 40.4
06:10 1016 30 845 24.95 7.1 44.8 85 4.7 40.5
06:15 1016 30 845 24.95 7.1 44.8 82 4.3 39.7
06:20 1016 30 845 24.95 7.1 44.8 83 4.5 40.1
06:25 1016 30 845 24.95 7.2 44.9 82 4.3 39.7
06:30 1016 30 845 24.95 7.3 45.2 80 4 39.2
06:35 1016 30 845 24.95 7.4 45.3 80 4.2 39.5
06:40 1016 30 845 24.95 7.4 45.3 81 4.3 39.7
06:45 1016 30 845 24.95 7.4 45.4 80 4.2 39.5
06:50 1016 30 845 24.95 7.5 45.5 79 4 39.2
06:55 1016 30 845 24.95 7.5 45.6 78 4 39.2
07:00 1016 30 845 24.95 7.6 45.7 78 4.1 39.4
07:05 1016 30 845 24.95 7.6 45.7 79 4.1 39.4
07:10 1016 30 845 24.95 7.6 45.7 80 4.4 39.9
07:15 1016 30 846 24.98 7.7 45.8 81 4.7 40.4
07:20 1016 30 846 24.98 7.7 45.8 82 4.8 40.7
07:25 1017 30.03 846 24.98 7.7 45.8 81 4.6 40.3
07:30 1017 30.03 846 24.98 7.7 45.8 81 4.7 40.5
07:35 1017 30.03 846 24.98 7.7 45.9 81 4.7 40.4
07:40 1017 30.03 846 24.98 7.8 46 80 4.6 40.3
07:45 1017 30.03 846 24.98 7.8 46 81 4.8 40.7
07:50 1017 30.03 846 24.98 7.9 46.2 80 4.6 40.4
07:55 1017 30.03 846 24.98 7.9 46.2 81 4.8 40.7
08:00 1017 30.03 846 24.98 7.9 46.2 78 4.4 39.9
08:05 1017 30.03 846 24.98 7.9 46.3 78 4.4 39.9
08:10 1017 30.03 846 24.98 8 46.3 79 4.5 40.2
08:15 1017 30.03 846 24.98 7.9 46.3 80 4.8 40.6
08:20 1017 30.03 846 24.98 8 46.5 80 4.9 40.8
08:25 1017 30.03 846 24.98 8.1 46.6 81 5.1 41.2
08:30 1017 30.03 846 24.98 8.2 46.8 80 4.9 40.9
08:35 1017 30.03 846 24.98 8.3 46.9 79 4.8 40.6
08:40 1017 30.03 846 24.98 8.3 47 76 4.4 39.9
08:45 1017 30.03 846 24.98 8.5 47.2 76 4.6 40.2
08:50 1017 30.03 846 24.98 8.5 47.3 76 4.6 40.3
08:55 1017 30.03 847 25.01 8.6 47.5 79 5.1 41.2
09:00 1017 30.03 847 25.01 8.8 47.8 75 4.6 40.4
09:05 1017 30.03 847 25.01 8.8 47.8 78 5.1 41.2
09:10 1018 30.06 847 25.01 8.8 47.9 76 4.9 40.8
09:15 1018 30.06 847 25.01 8.8 47.9 75 4.7 40.4
09:20 1018 30.06 847 25.01 8.8 47.9 75 4.6 40.3
09:25 1018 30.06 847 25.01 8.8 47.9 75 4.7 40.5
09:30 1018 30.06 847 25.01 8.9 48 77 5.2 41.3
09:35 1018 30.06 847 25.01 9 48.1 77 5.2 41.4
09:40 1018 30.06 847 25.01 9 48.2 79 5.6 42.1
09:45 1018 30.06 847 25.01 9 48.1 79 5.5 41.8
09:50 1018 30.06 847 25.01 9 48.1 80 5.8 42.4
09:55 1018 30.06 847 25.01 8.6 47.4 85 6.1 43.1
10:00 1018 30.06 847 25.01 8.2 46.8 87 6.2 43.2
10:05 1018 30.06 847 25.01 8.3 47 86 6.1 43
10:10 1018 30.06 847 25.01 8.3 47 86 6.1 43
10:15 1018 30.06 847 25.01 8.2 46.8 86 6 42.8
10:20 1018 30.06 847 25.01 8.3 46.9 85 6 42.8
10:25 1018 30.06 847 25.01 8.3 47 86 6.1 43.1
10:30 1018 30.06 847 25.01 8.5 47.3 84 6 42.7
10:35 1018 30.06 848 25.04 8.6 47.5 86 6.4 43.5
10:40 1018 30.06 848 25.04 8.9 47.9 86 6.6 43.9
10:45 1018 30.06 848 25.04 9.2 48.6 84 6.7 44.1
10:50 1018 30.06 848 25.04 9.6 49.3 79 6.1 42.9
10:55 1018 30.06 848 25.04 10 50 72 5.2 41.4
11:00 1018 30.06 848 25.04 10.4 50.7 71 5.4 41.6
11:05 1019 30.09 848 25.04 10.6 51 74 6.1 42.9
11:10 1019 30.09 848 25.04 10.6 51.1 69 5.2 41.4
11:15 1019 30.09 848 25.04 10.4 50.7 68 4.9 40.7
11:20 1019 30.09 848 25.04 10.3 50.6 71 5.3 41.6
11:25 1019 30.09 848 25.04 10.4 50.7 69 5.1 41.1
11:30 1019 30.09 848 25.04 10.3 50.5 72 5.4 41.7
11:35 1019 30.09 848 25.04 10.4 50.6 67 4.6 40.2
11:40 1019 30.09 848 25.04 10.5 50.8 69 5.1 41.1
11:45 1019 30.09 848 25.04 10.7 51.3 67 4.8 40.7
11:50 1019 30.09 848 25.04 10.7 51.3 68 5.1 41.2
11:55 1019 30.09 848 25.04 10.9 51.7 68 5.4 41.7
12:00 1019 30.09 848 25.04 11 51.7 68 5.2 41.4
12:05 1019 30.09 848 25.04 10.8 51.4 68 5.1 41.2
12:10 1019 30.09 848 25.04 10.7 51.3 66 4.7 40.5
12:15 1019 30.09 848 25.04 10.8 51.5 65 4.6 40.4
12:20 1019 30.09 848 25.04 11 51.7 65 4.7 40.4
12:25 1019 30.09 848 25.04 11.2 52.1 64 4.6 40.2
12:30 1019 30.09 848 25.04 11.3 52.3 65 4.9 40.8
12:35 1019 30.09 848 25.04 11.6 52.8 63 4.8 40.6
12:40 1019 30.09 848 25.04 11.7 53.1 61 4.4 39.9
12:45 1019 30.09 848 25.04 11.7 53.1 58 3.7 38.6
12:50 1019 30.09 848 25.04 11.8 53.2 59 4.1 39.4
12:55 1019 30.09 848 25.04 11.9 53.4 59 4.2 39.5
13:00 1019 30.09 848 25.04 12 53.7 58 4.2 39.5
13:05 1019 30.09 848 25.04 12.3 54.1 57 4 39.3
13:10 1019 30.09 848 25.04 12.3 54.1 58 4.3 39.7
13:15 1019 30.09 848 25.04 12.7 54.9 56 4.1 39.4
13:20 1019 30.09 848 25.04 12.8 55 54 3.7 38.6
13:25 1019 30.09 848 25.04 12.6 54.7 56 4.2 39.5
13:30 1019 30.09 848 25.04 13 55.4 54 3.9 39
13:35 1019 30.09 848 25.04 13.7 56.6 53 4.3 39.8
13:40 1019 30.09 848 25.04 14.1 57.4 50 3.9 39
13:45 1019 30.09 848 25.04 13.8 56.8 53 4.3 39.8
13:50 1019 30.09 848 25.04 13.7 56.7 52 4.2 39.6
13:55 1019 30.09 848 25.04 14.1 57.4 49 3.7 38.7
14:00 1019 30.09 848 25.04 14 57.2 53 4.6 40.3
14:05 1019 30.09 848 25.04 14.3 57.7 50 4.2 39.6
14:10 1019 30.09 848 25.04 13.9 56.9 52 4.1 39.5
14:15 1019 30.09 848 25.04 13.7 56.7 52 4.1 39.4
14:20 1019 30.09 848 25.04 13.9 57.1 51 4 39.3
14:25 1019 30.09 848 25.04 13.9 57 52 4.2 39.6
14:30 1019 30.09 848 25.04 13.9 57.1 52 4.4 39.8
14:35 1019 30.09 848 25.04 13.8 56.9 52 4.2 39.6
14:40 1019 30.09 848 25.04 13.9 57 50 3.8 38.9
14:45 1019 30.09 848 25.04 13.9 57.1 51 4 39.1
14:50 1019 30.09 848 25.04 14.1 57.4 51 4.1 39.4
14:55 1019 30.09 848 25.04 14.3 57.8 50 4.1 39.5
15:00 1019 30.09 848 25.04 14.6 58.3 48 3.9 39.1
15:05 1019 30.09 848 25.04 15.2 59.4 47 4 39.2
15:10 1019 30.09 848 25.04 15.3 59.5 46 3.8 38.9
15:15 1019 30.09 848 25.04 15.4 59.7 48 4.4 39.9
15:20 1019 30.09 848 25.04 15.9 60.7 43 3.6 38.5
15:25 1019 30.09 848 25.04 16.8 62.2 40 3.2 37.8
15:30 1019 30.09 848 25.04 16.7 62 42 4 39.2
15:35 1019 30.09 848 25.04 16.2 61.2 42 3.3 38
15:40 1019 30.09 848 25.04 15.9 60.6 43 3.5 38.3
15:45 1019 30.09 848 25.04 15.9 60.5 44 3.8 38.8
15:50 1019 30.09 848 25.04 15.7 60.3 46 4.1 39.4
15:55 1019 30.09 848 25.04 15.7 60.2 46 4.2 39.6
16:00 1019 30.09 848 25.04 15.8 60.4 43 3.5 38.3
16:05 1019 30.09 848 25.04 15.8 60.5 44 3.6 38.5
16:10 1018 30.06 848 25.04 15.9 60.5 45 3.9 39
16:15 1018 30.06 848 25.04 16 60.8 44 3.8 38.8
16:20 1018 30.06 848 25.04 15.9 60.6 44 3.8 38.8
16:25 1018 30.06 848 25.04 15.8 60.4 44 3.8 38.8
16:30 1018 30.06 848 25.04 15.7 60.3 45 3.9 39
16:35 1018 30.06 847 25.01 15.8 60.4 46 4.3 39.8
16:40 1018 30.06 847 25.01 16 60.8 43 3.6 38.5
16:45 1018 30.06 847 25.01 16.3 61.3 45 4.3 39.8
16:50 1018 30.06 847 25.01 16.2 61.1 43 3.6 38.5
16:55 1018 30.06 847 25.01 16.3 61.4 42 3.4 38.2
17:00 1018 30.06 847 25.01 16.5 61.7 43 3.9 38.9
17:05 1018 30.06 847 25.01 16.7 62.1 42 3.8 38.8
17:10 1018 30.06 847 25.01 16.8 62.2 42 3.8 38.8
17:15 1018 30.06 847 25.01 17 62.6 40 3.3 38
17:20 1018 30.06 847 25.01 17.2 62.9 40 3.5 38.4
17:25 1018 30.06 847 25.01 17 62.7 43 4.4 39.9
17:30 1018 30.06 847 25.01 16.9 62.4 43 4.4 40
17:35 1018 30.06 847 25.01 17.1 62.8 41 3.8 38.9
17:40 1018 30.06 847 25.01 17 62.6 41 3.8 38.9
17:45 1018 30.06 847 25.01 17.4 63.2 38 3.1 37.6
17:50 1018 30.06 847 25.01 17.7 63.8 37 2.8 37
17:55 1018 30.06 847 25.01 17.5 63.5 37 2.8 37
18:00 1018 30.06 847 25.01 17.3 63.1 38 3 37.3
18:05 1018 30.06 847 25.01 17.3 63.2 38 3 37.5
18:10 1018 30.06 847 25.01 17.4 63.4 38 3.2 37.7
18:15 1018 30.06 847 25.01 17 62.6 38 2.9 37.1
18:20 1018 30.06 847 25.01 17.1 62.7 38 2.6 36.7
18:25 1018 30.06 847 25.01 17.2 63 38 2.9 37.3
18:30 1018 30.06 847 25.01 16.9 62.5 38 2.7 36.9
18:35 1018 30.06 847 25.01 16.9 62.5 40 3.2 37.8
18:40 1018 30.06 847 25.01 17.1 62.7 40 3.6 38.4
18:45 1018 30.06 847 25.01 17.3 63.1 37 2.6 36.7
18:50 1018 30.06 847 25.01 17.2 63 38 2.8 37
18:55 1018 30.06 847 25.01 17.2 62.9 37 2.6 36.7
19:00 1018 30.06 847 25.01 17 62.5 40 3.5 38.3
19:05 1018 30.06 847 25.01 16.6 61.9 43 4.2 39.6
19:10 1018 30.06 847 25.01 16.5 61.8 44 4.3 39.7
19:15 1018 30.06 847 25.01 16.3 61.3 45 4.4 39.9
19:20 1018 30.06 847 25.01 16.1 60.9 46 4.5 40.1
19:25 1018 30.06 847 25.01 15.9 60.7 48 4.9 40.8
19:30 1018 30.06 847 25.01 15.8 60.5 48 4.9 40.8
19:35 1018 30.06 847 25.01 15.7 60.3 49 5 41.1
19:40 1018 30.06 847 25.01 15.6 60 49 5 40.9
19:45 1018 30.06 847 25.01 15.5 59.8 48 4.5 40.1
19:50 1018 30.06 847 25.01 15.4 59.7 47 4.1 39.3
19:55 1018 30.06 847 25.01 15.3 59.5 47 4 39.2
20:00 1018 30.06 847 25.01 15.2 59.4 46 3.9 39
20:05 1018 30.06 847 25.01 15.1 59.1 47 3.8 38.9
20:10 1018 30.06 847 25.01 14.9 58.9 47 3.8 38.9
20:15 1018 30.06 847 25.01 14.8 58.6 47 3.8 38.8
20:20 1018 30.06 847 25.01 14.7 58.4 49 4.1 39.3
20:25 1018 30.06 847 25.01 14.5 58 50 4.3 39.7
20:30 1018 30.06 847 25.01 14.2 57.6 51 4.4 39.9
20:35 1018 30.06 847 25.01 14 57.1 53 4.5 40.1
20:40 1018 30.06 847 25.01 13.8 56.9 53 4.5 40.2
20:45 1018 30.06 847 25.01 13.8 56.8 54 4.7 40.5
20:50 1018 30.06 847 25.01 13.6 56.4 57 5.3 41.5
20:55 1018 30.06 847 25.01 12.9 55.2 61 5.5 41.9
21:00 1018 30.06 847 25.01 12.4 54.3 62 5.3 41.6
21:05 1018 30.06 847 25.01 12.1 53.8 64 5.5 42
21:10 1018 30.06 847 25.01 11.8 53.2 65 5.4 41.8
21:15 1018 30.06 848 25.04 11.5 52.7 67 5.5 42
21:20 1018 30.06 848 25.04 11.3 52.3 67 5.3 41.6
21:25 1018 30.06 848 25.04 11.2 52.2 66 5.2 41.3
21:30 1018 30.06 848 25.04 11.2 52.1 67 5.2 41.4
21:35 1018 30.06 848 25.04 11.3 52.4 66 5.3 41.5
21:40 1018 30.06 848 25.04 11.3 52.3 67 5.5 41.9
21:45 1018 30.06 848 25.04 11.1 52 68 5.4 41.7
21:50 1018 30.06 848 25.04 11.2 52.1 67 5.2 41.4
21:55 1018 30.06 848 25.04 11.3 52.3 66 5.2 41.4
22:00 1018 30.06 848 25.04 11.3 52.4 65 5.1 41.2
22:05 1018 30.06 848 25.04 11.5 52.6 65 5.1 41.1
22:10 1018 30.06 848 25.04 11.5 52.6 65 5.2 41.3
22:15 1018 30.06 848 25.04 11.2 52.2 66 5.2 41.4
22:20 1018 30.06 848 25.04 11.1 51.9 67 5.2 41.4
22:25 1018 30.06 848 25.04 11 51.7 67 5.1 41.2
22:30 1018 30.06 848 25.04 11 51.7 66 4.8 40.7
22:35 1018 30.06 848 25.04 10.9 51.7 67 5 41.1
22:40 1018 30.06 848 25.04 10.9 51.6 65 4.7 40.4
22:45 1018 30.06 848 25.04 10.9 51.6 65 4.6 40.3
22:50 1018 30.06 848 25.04 11 51.7 64 4.4 39.8
22:55 1018 30.06 848 25.04 11 51.8 61 3.9 39
23:00 1018 30.06 848 25.04 11.2 52.1 61 4 39.2
23:05 1018 30.06 848 25.04 11 51.8 62 4 39.3
23:10 1018 30.06 848 25.04 10.7 51.3 65 4.4 39.8
23:15 1018 30.06 848 25.04 10.4 50.8 65 4.1 39.4
23:20 1018 30.06 847 25.01 10.6 51 64 4 39.3
23:25 1018 30.06 847 25.01 10.7 51.2 64 4.2 39.5
23:30 1018 30.06 847 25.01 10.6 51 64 4.2 39.5
23:35 1018 30.06 847 25.01 10.3 50.6 66 4.4 39.9
23:40 1018 30.06 847 25.01 10.1 50.2 67 4.3 39.7
23:45 1018 30.06 847 25.01 10 50.1 67 4.2 39.6
23:50 1018 30.06 847 25.01 9.9 49.8 68 4.3 39.7
23:55 1018 30.06 847 25.01 9.7 49.4 69 4.3 39.8
24:00 1018 30.06 847 25.01 9.5 49.2 70 4.4 39.9